Time;durP1;ratioP1;P1;durP2;ratioP2;P2;SDS_P1;SDS_P2;PMS_P1;PMS_P2;Temp;Humidity;BMP_temperature;BMP_pressure;BME280_temperature;BME280_humidity;BME280_pressure;Samples;Min_cycle;Max_cycle;Signal;HPM_P1;HPM_P2
2022/07/15 00:00:20;;;;;;;5.27;1.17;;;;;;;14.36;100.00;102036.16;4978875;28;20320;-72
2022/07/15 00:02:47;;;;;;;3.90;1.20;;;;;;;15.10;100.00;102183.44;4980621;28;20174;-73
2022/07/15 00:05:12;;;;;;;4.10;1.70;;;;;;;15.03;100.00;102178.00;4982839;28;20206;-73
2022/07/15 00:07:38;;;;;;;4.53;1.40;;;;;;;14.73;100.00;102085.50;4982595;28;20447;-73
2022/07/15 00:10:18;;;;;;;5.03;0.90;;;;;;;15.24;100.00;102168.16;4982067;28;20186;-72
2022/07/15 00:12:46;;;;;;;2.47;0.80;;;;;;;15.27;100.00;102170.47;4983571;28;20197;-72
2022/07/15 00:15:12;;;;;;;2.80;1.07;;;;;;;14.59;100.00;102067.53;4982542;28;20501;-72
2022/07/15 00:17:39;;;;;;;2.00;0.80;;;;;;;14.85;100.00;102134.44;4984796;28;21112;-72
2022/07/15 00:20:05;;;;;;;4.37;1.00;;;;;;;15.18;100.00;102158.97;4983118;28;20450;-72
2022/07/15 00:22:31;;;;;;;2.40;0.80;;;;;;;15.26;100.00;102163.41;4980969;28;20493;-72
2022/07/15 00:24:57;;;;;;;1.83;0.70;;;;;;;15.08;100.00;102136.88;4982645;28;20472;-72
2022/07/15 00:27:23;;;;;;;2.57;0.80;;;;;;;14.79;100.00;102095.53;4983154;28;20440;-72
2022/07/15 00:29:48;;;;;;;3.80;1.10;;;;;;;14.05;100.00;102003.28;4982054;28;20468;-71
2022/07/15 00:32:13;;;;;;;1.93;0.80;;;;;;;14.34;100.00;102016.63;4982265;28;20196;-72
2022/07/15 00:34:39;;;;;;;2.10;0.80;;;;;;;14.50;100.00;102042.50;4983104;28;20197;-72
2022/07/15 00:37:04;;;;;;;2.40;0.90;;;;;;;14.87;100.00;102127.81;4982638;28;20225;-72
2022/07/15 00:39:30;;;;;;;1.50;0.70;;;;;;;15.08;100.00;102163.91;4983584;28;20202;-72
2022/07/15 00:41:56;;;;;;;7.20;1.10;;;;;;;14.76;100.00;102095.91;4981296;28;20257;-72
2022/07/15 00:44:21;;;;;;;3.80;0.90;;;;;;;14.67;100.00;102095.22;4977309;28;20268;-72
2022/07/15 00:46:47;;;;;;;3.47;0.90;;;;;;;13.32;100.00;101903.63;4983710;28;20218;-72
2022/07/15 00:49:13;;;;;;;3.00;1.00;;;;;;;15.07;100.00;102135.19;4979220;28;20726;-72
2022/07/15 00:51:44;;;;;;;3.30;0.90;;;;;;;15.09;100.00;102155.59;4982202;28;20440;-72
2022/07/15 00:54:11;;;;;;;2.50;1.00;;;;;;;15.06;100.00;102139.78;4996516;28;20824;-72
2022/07/15 00:56:41;;;;;;;4.23;0.90;;;;;;;15.08;100.00;102136.88;4982737;28;20472;-72
2022/07/15 00:59:08;;;;;;;3.60;0.90;;;;;;;14.77;100.00;102104.84;4981988;28;20571;-72
2022/07/15 01:01:37;;;;;;;2.10;1.00;;;;;;;14.84;100.00;102114.69;4980089;28;20480;-72
2022/07/15 01:04:04;;;;;;;3.40;1.30;;;;;;;12.57;100.00;101770.19;4979106;28;20448;-72
2022/07/15 01:06:30;;;;;;;1.70;0.70;;;;;;;14.18;100.00;102025.84;4984658;28;20728;-72
2022/07/15 01:08:55;;;;;;;4.13;1.10;;;;;;;14.16;100.00;102000.91;4983995;28;20479;-72
2022/07/15 01:11:21;;;;;;;7.17;1.17;;;;;;;14.97;100.00;102130.16;4981688;28;20190;-71
2022/07/15 01:13:46;;;;;;;2.27;0.90;;;;;;;14.74;100.00;102084.47;4980966;28;20214;-72
2022/07/15 01:16:11;;;;;;;2.53;1.00;;;;;;;14.14;100.00;101991.31;4982849;28;20683;-72
2022/07/15 01:18:37;;;;;;;4.63;1.13;;;;;;;14.62;100.00;102102.25;4982532;28;20213;-72
2022/07/15 01:21:02;;;;;;;2.20;0.90;;;;;;;14.66;100.00;102128.63;4982276;28;20205;-72
2022/07/15 01:23:28;;;;;;;4.40;0.90;;;;;;;14.07;100.00;101985.06;4979937;28;20285;-72
2022/07/15 01:25:53;;;;;;;2.77;0.77;;;;;;;15.03;100.00;102126.66;4980001;28;20190;-72
2022/07/15 01:28:19;;;;;;;1.77;0.70;;;;;;;14.00;100.00;101995.75;4980271;28;20213;-72
2022/07/15 01:30:44;;;;;;;1.43;0.80;;;;;;;14.21;100.00;102024.63;4981685;28;20197;-72
2022/07/15 01:33:10;;;;;;;3.17;1.00;;;;;;;14.86;100.00;102134.22;4980569;28;20256;-72
2022/07/15 01:35:36;;;;;;;2.33;0.90;;;;;;;14.06;100.00;102018.44;4984667;28;20203;-72
2022/07/15 01:38:02;;;;;;;2.90;0.73;;;;;;;14.22;100.00;102043.28;4980714;28;20465;-72
2022/07/15 01:40:27;;;;;;;1.60;0.87;;;;;;;14.05;100.00;102031.09;4982747;28;20190;-72
2022/07/15 01:42:52;;;;;;;3.10;1.00;;;;;;;14.22;100.00;102031.66;4981423;28;20304;-72
2022/07/15 01:45:18;;;;;;;4.00;1.10;;;;;;;14.74;100.00;102138.47;4980244;28;20624;-71
2022/07/15 01:47:45;;;;;;;1.80;0.80;;;;;;;14.32;100.00;102079.91;4981814;28;20197;-71
2022/07/15 01:50:11;;;;;;;1.80;0.70;;;;;;;14.43;100.00;102115.31;4979265;28;20643;-72
2022/07/15 01:52:36;;;;;;;1.27;0.80;;;;;;;14.08;100.00;102076.56;4980598;28;20438;-71
2022/07/15 01:55:03;;;;;;;3.83;0.83;;;;;;;14.41;100.00;102148.97;4982146;28;20209;-72
2022/07/15 01:57:29;;;;;;;2.60;1.10;;;;;;;14.16;100.00;102060.25;4981856;28;20182;-71
2022/07/15 01:59:54;;;;;;;3.23;0.73;;;;;;;13.58;100.00;102005.50;4982351;28;20465;-73
2022/07/15 02:02:20;;;;;;;1.20;0.70;;;;;;;13.37;100.00;101995.53;4980592;28;20197;-71
2022/07/15 02:04:45;;;;;;;1.60;0.60;;;;;;;14.50;100.00;102136.16;4978634;28;20189;-72
2022/07/15 02:07:10;;;;;;;1.73;0.77;;;;;;;13.90;100.00;102049.22;4980294;28;20565;-72
2022/07/15 02:09:36;;;;;;;4.70;1.03;;;;;;;14.20;100.00;102091.25;4997472;28;20230;-72
2022/07/15 02:12:01;;;;;;;2.60;0.73;;;;;;;13.58;100.00;102043.25;4978791;28;20275;-72
2022/07/15 02:14:27;;;;;;;2.87;0.70;;;;;;;13.98;100.00;102087.69;4978699;28;20178;-71
2022/07/15 02:16:52;;;;;;;2.53;0.60;;;;;;;13.96;100.00;102043.03;4979123;28;20193;-71
2022/07/15 02:19:18;;;;;;;1.73;0.83;;;;;;;13.83;100.00;102062.63;4981148;28;20224;-71
2022/07/15 02:21:43;;;;;;;1.70;0.80;;;;;;;14.67;100.00;102151.94;4980612;28;20189;-71
2022/07/15 02:24:09;;;;;;;1.57;0.60;;;;;;;14.34;100.00;102104.84;4981321;28;20190;-70
2022/07/15 02:26:35;;;;;;;1.77;0.70;;;;;;;13.65;100.00;101981.31;4981789;28;20639;-71
2022/07/15 02:29:01;;;;;;;2.27;0.80;;;;;;;13.94;100.00;102004.63;4980817;28;20213;-73
2022/07/15 02:31:26;;;;;;;2.50;0.93;;;;;;;13.92;100.00;102012.94;4978471;28;20444;-73
2022/07/15 02:33:52;;;;;;;2.83;0.70;;;;;;;14.64;100.00;102116.41;4980792;28;20182;-71
2022/07/15 02:36:17;;;;;;;3.27;0.80;;;;;;;14.09;100.00;102042.31;4978596;28;20253;-71
2022/07/15 02:38:44;;;;;;;3.50;1.00;;;;;;;14.17;100.00;102024.16;4979592;28;20888;-72
2022/07/15 02:41:11;;;;;;;1.20;0.57;;;;;;;14.46;100.00;102068.22;4977010;28;20185;-72
2022/07/15 02:43:37;;;;;;;1.70;0.60;;;;;;;14.00;100.00;102017.34;4979735;28;20433;-72
2022/07/15 02:46:02;;;;;;;4.27;0.90;;;;;;;14.51;100.00;102095.47;4979996;28;20981;-71
2022/07/15 02:48:28;;;;;;;6.10;0.70;;;;;;;13.81;100.00;101994.56;4978976;28;20205;-71
2022/07/15 02:50:53;;;;;;;2.90;0.70;;;;;;;14.92;100.00;102154.22;4978144;28;20266;-72
2022/07/15 02:53:20;;;;;;;2.43;0.83;;;;;;;14.43;100.00;102104.50;4976208;28;20209;-72
2022/07/15 02:55:47;;;;;;;2.47;0.80;;;;;;;14.71;100.00;102154.25;4980586;28;20202;-72
2022/07/15 02:58:12;;;;;;;2.17;0.70;;;;;;;13.41;100.00;101971.72;4977278;28;20473;-72
2022/07/15 03:00:38;;;;;;;1.20;0.70;;;;;;;14.19;100.00;102073.38;4978658;28;20460;-72
2022/07/15 03:03:03;;;;;;;1.47;0.70;;;;;;;14.61;100.00;102166.22;4977957;28;20182;-72
2022/07/15 03:05:29;;;;;;;1.17;0.70;;;;;;;14.30;100.00;102125.16;4979267;28;20182;-71
2022/07/15 03:07:54;;;;;;;2.90;1.20;;;;;;;13.64;100.00;102023.63;4979748;28;20271;-71
2022/07/15 03:10:20;;;;;;;1.40;0.70;;;;;;;13.84;100.00;102063.47;4978014;28;20575;-72
2022/07/15 03:12:46;;;;;;;1.83;0.90;;;;;;;14.37;100.00;102170.06;4976750;28;20849;-71
2022/07/15 03:15:11;;;;;;;1.77;0.70;;;;;;;12.58;100.00;101936.88;4974154;28;20473;-72
2022/07/15 03:17:39;;;;;;;2.20;0.80;;;;;;;13.41;100.00;102022.94;4977320;28;20185;-71
2022/07/15 03:20:06;;;;;;;2.30;0.93;;;;;;;13.75;100.00;102054.66;4979739;28;20186;-71
2022/07/15 03:22:31;;;;;;;4.03;0.80;;;;;;;14.32;100.00;102180.63;4978836;28;20449;-71
2022/07/15 03:24:57;;;;;;;1.40;0.50;;;;;;;13.38;100.00;102048.38;4978613;28;20436;-71
2022/07/15 03:27:22;;;;;;;2.90;0.70;;;;;;;13.79;100.00;102056.75;4977552;28;20603;-71
2022/07/15 03:29:49;;;;;;;1.90;0.80;;;;;;;14.63;100.00;102168.72;4978079;28;20217;-71
2022/07/15 03:32:15;;;;;;;4.23;1.10;;;;;;;13.83;100.00;102040.19;4975250;28;20186;-71
2022/07/15 03:34:41;;;;;;;1.50;0.60;;;;;;;13.78;100.00;102025.44;4976435;28;20437;-71
2022/07/15 03:37:07;;;;;;;2.80;0.90;;;;;;;14.00;100.00;102057.81;4981211;28;20442;-71
2022/07/15 03:39:32;;;;;;;1.47;0.63;;;;;;;14.77;100.00;102165.09;4980287;28;20461;-71
2022/07/15 03:41:57;;;;;;;1.43;0.70;;;;;;;14.12;100.00;102058.16;4985635;28;20227;-71
2022/07/15 03:44:23;;;;;;;1.53;0.67;;;;;;;14.67;100.00;102151.94;4984072;28;20204;-71
2022/07/15 03:46:48;;;;;;;2.97;0.83;;;;;;;13.19;100.00;101927.69;4984641;28;20611;-71
2022/07/15 03:49:15;;;;;;;2.67;0.87;;;;;;;14.85;100.00;102172.25;4983899;28;20279;-71
2022/07/15 03:51:40;;;;;;;3.50;0.90;;;;;;;14.75;100.00;102171.72;4982497;28;20182;-71
2022/07/15 03:54:06;;;;;;;2.10;0.80;;;;;;;14.88;100.00;102169.16;4990944;23;20534;-73
2022/07/15 03:56:33;;;;;;;1.00;0.70;;;;;;;14.99;100.00;102178.59;4979304;28;20682;-73
2022/07/15 03:58:58;;;;;;;1.73;0.60;;;;;;;14.54;100.00;102110.47;4983062;28;20446;-73
2022/07/15 04:01:24;;;;;;;2.47;1.00;;;;;;;14.91;100.00;102183.09;4984222;28;20467;-73
2022/07/15 04:03:50;;;;;;;1.30;0.80;;;;;;;14.74;100.00;102154.69;4975771;28;20668;-73
2022/07/15 04:06:17;;;;;;;1.80;0.77;;;;;;;14.62;100.00;102121.97;4960781;28;20213;-73
2022/07/15 04:08:43;;;;;;;1.80;0.60;;;;;;;15.00;100.00;102186.50;4963394;28;20501;-73
2022/07/15 04:11:09;;;;;;;3.93;1.10;;;;;;;14.79;100.00;102136.03;4963111;28;20449;-73
2022/07/15 04:13:34;;;;;;;2.20;0.80;;;;;;;15.19;100.00;102192.25;4966975;28;20831;-73
2022/07/15 04:16:00;;;;;;;2.30;0.80;;;;;;;14.30;100.00;102073.91;4968216;28;20466;-74
2022/07/15 04:18:25;;;;;;;1.07;0.83;;;;;;;14.91;100.00;102149.84;4962466;28;20189;-73
2022/07/15 04:20:51;;;;;;;1.20;0.60;;;;;;;14.65;100.00;102137.78;4961543;28;20191;-74
2022/07/15 04:23:16;;;;;;;1.13;0.50;;;;;;;15.08;100.00;102180.13;4963618;28;20253;-74
2022/07/15 04:25:42;;;;;;;3.70;0.70;;;;;;;14.40;100.00;102098.69;4964771;28;20288;-73
2022/07/15 04:28:07;;;;;;;1.27;0.60;;;;;;;14.71;100.00;102130.78;4964816;28;20197;-73
2022/07/15 04:30:33;;;;;;;1.00;0.70;;;;;;;14.15;100.00;102057.78;4959446;28;20667;-73
2022/07/15 04:32:59;;;;;;;0.57;0.57;;;;;;;14.48;100.00;102091.28;4967140;28;20266;-73
2022/07/15 04:35:24;;;;;;;0.70;0.60;;;;;;;14.83;100.00;102163.50;4961671;28;20657;-73
2022/07/15 04:37:50;;;;;;;1.67;0.70;;;;;;;15.05;100.00;102197.56;4964054;28;20691;-73
2022/07/15 04:40:15;;;;;;;2.73;0.77;;;;;;;15.11;100.00;102201.34;4953212;28;20195;-73
2022/07/15 04:42:41;;;;;;;1.43;0.60;;;;;;;15.00;100.00;102180.25;4958930;28;20252;-73
2022/07/15 04:45:07;;;;;;;1.60;0.60;;;;;;;14.96;100.00;102187.09;4961392;28;20210;-73
2022/07/15 04:47:32;;;;;;;1.33;0.57;;;;;;;14.75;100.00;102169.84;4961417;28;20186;-74
2022/07/15 04:52:46;;;;;;;2.20;0.70;;;;;;;14.73;100.00;102258.34;4959906;28;20192;-74
2022/07/15 04:55:13;;;;;;;0.90;0.70;;;;;;;14.46;100.00;102227.47;4963960;28;20482;-74
2022/07/15 04:57:38;;;;;;;1.23;0.63;;;;;;;14.59;100.00;102259.25;4954571;28;20457;-74
2022/07/15 05:00:05;;;;;;;3.87;0.90;;;;;;;14.02;100.00;102218.44;4961862;28;21010;-76
2022/07/15 05:02:31;;;;;;;1.20;0.83;;;;;;;13.90;100.00;102211.03;4959826;28;20186;-76
2022/07/15 05:04:57;;;;;;;1.27;0.60;;;;;;;14.36;100.00;102265.59;4965217;28;20462;-77
2022/07/15 05:07:22;;;;;;;4.93;0.70;;;;;;;14.35;100.00;102266.63;4964648;28;20186;-77
2022/07/15 05:09:48;;;;;;;1.00;0.80;;;;;;;14.42;100.00;102264.00;4963578;28;20255;-76
2022/07/15 05:12:13;;;;;;;1.77;0.70;;;;;;;14.04;100.00;102202.09;4962117;28;20194;-76
2022/07/15 05:14:40;;;;;;;2.33;0.87;;;;;;;14.40;100.00;102260.63;4961162;28;20582;-76
2022/07/15 05:17:06;;;;;;;1.43;0.63;;;;;;;14.24;100.00;102262.53;4961530;28;20179;-75
2022/07/15 05:19:32;;;;;;;1.93;0.70;;;;;;;13.84;100.00;102174.03;4966063;28;20477;-75
2022/07/15 05:21:58;;;;;;;1.17;0.60;;;;;;;14.47;100.00;102266.97;4963693;28;20569;-75
2022/07/15 05:24:23;;;;;;;2.60;0.80;;;;;;;14.51;100.00;102279.03;4965790;28;20214;-75
2022/07/15 05:26:48;;;;;;;3.40;0.73;;;;;;;14.31;100.00;102232.09;4961546;28;20186;-75
2022/07/15 05:29:14;;;;;;;2.77;0.80;;;;;;;14.48;100.00;102234.38;4963218;28;20238;-74
2022/07/15 05:31:39;;;;;;;3.53;0.80;;;;;;;14.65;100.00;102242.28;4960393;28;20605;-75
2022/07/15 05:34:05;;;;;;;1.90;0.60;;;;;;;14.17;100.00;102155.53;4962215;28;20211;-74
2022/07/15 05:36:30;;;;;;;0.87;0.60;;;;;;;14.60;100.00;102201.50;4963280;28;20195;-75
2022/07/15 05:38:56;;;;;;;3.57;0.90;;;;;;;14.67;100.00;102218.63;4963837;28;20214;-74
2022/07/15 05:41:21;;;;;;;1.70;0.77;;;;;;;14.95;100.00;102239.44;4962956;28;20186;-74
2022/07/15 05:43:46;;;;;;;1.90;0.70;;;;;;;14.58;100.00;102250.31;4965022;28;20709;-74
2022/07/15 05:46:12;;;;;;;1.93;0.70;;;;;;;14.73;100.00;102249.44;4962364;28;20236;-74
2022/07/15 05:48:39;;;;;;;1.07;0.80;;;;;;;14.36;100.00;102189.19;4960812;28;20202;-74
2022/07/15 05:51:05;;;;;;;2.83;1.00;;;;;;;14.59;100.00;102216.03;4962003;28;20195;-74
2022/07/15 05:53:31;;;;;;;2.57;0.87;;;;;;;14.63;100.00;102247.84;4964417;28;20548;-74
2022/07/15 05:55:57;;;;;;;3.20;0.93;;;;;;;14.97;100.00;102259.00;4962965;28;20873;-81
2022/07/15 05:58:23;;;;;;;3.10;1.27;;;;;;;15.01;100.00;102282.72;4962360;28;20540;-79
2022/07/15 06:00:51;;;;;;;4.60;1.07;;;;;;;13.98;100.00;102141.63;4959531;28;20441;-83
2022/07/15 06:03:16;;;;;;;1.60;0.90;;;;;;;14.28;100.00;102200.09;4967357;28;20465;-80
2022/07/15 06:05:42;;;;;;;3.60;1.20;;;;;;;14.53;100.00;102277.03;4958876;28;20447;-79
2022/07/15 06:08:07;;;;;;;2.20;0.77;;;;;;;14.65;100.00;102307.91;4961829;28;20195;-78
2022/07/15 06:10:33;;;;;;;4.70;0.93;;;;;;;14.24;100.00;102251.75;4961223;28;20258;-80
2022/07/15 06:12:58;;;;;;;2.20;0.80;;;;;;;14.24;100.00;102243.66;4965026;28;20266;-83
2022/07/15 06:15:24;;;;;;;1.03;0.50;;;;;;;14.40;100.00;102287.63;4978563;28;20258;-81
2022/07/15 06:17:49;;;;;;;2.90;1.00;;;;;;;14.50;100.00;102298.97;4965506;28;20194;-79
2022/07/15 06:20:15;;;;;;;3.57;1.43;;;;;;;14.84;100.00;102303.78;4964109;28;20182;-78
2022/07/15 06:22:40;;;;;;;2.40;0.70;;;;;;;14.25;100.00;102257.97;4960662;28;20199;-77
2022/07/15 06:25:08;;;;;;;2.33;0.80;;;;;;;12.72;100.00;101999.78;4960722;28;20322;-77
2022/07/15 06:27:34;;;;;;;1.97;0.80;;;;;;;15.03;100.00;102318.50;4962663;28;20453;-77
2022/07/15 06:30:00;;;;;;;1.10;0.93;;;;;;;14.90;100.00;102318.38;4959903;28;20457;-76
2022/07/15 06:32:25;;;;;;;2.77;1.00;;;;;;;14.73;100.00;102281.84;4965349;28;20441;-75
2022/07/15 06:34:51;;;;;;;2.30;0.60;;;;;;;14.08;100.00;102243.84;4961786;28;20240;-76
2022/07/15 06:37:17;;;;;;;1.50;0.63;;;;;;;14.07;100.00;102209.81;4962986;28;20242;-76
2022/07/15 06:39:42;;;;;;;1.73;0.70;;;;;;;14.73;100.00;102328.56;4961398;28;20210;-76
2022/07/15 06:42:08;;;;;;;6.13;1.03;;;;;;;14.64;100.00;102324.31;4960100;28;22609;-76
2022/07/15 06:44:34;;;;;;;5.37;0.80;;;;;;;13.94;100.00;102221.28;4962109;28;20214;-76
2022/07/15 06:47:00;;;;;;;1.80;0.80;;;;;;;14.28;100.00;102278.34;4965156;28;20663;-75
2022/07/15 06:49:25;;;;;;;0.97;0.53;;;;;;;14.79;100.00;102324.28;4963730;28;20516;-76
2022/07/15 06:51:51;;;;;;;2.60;1.10;;;;;;;14.41;100.00;102249.66;4966810;28;20188;-75
2022/07/15 06:54:18;;;;;;;3.27;0.93;;;;;;;14.20;100.00;102188.38;4963990;28;20268;-75
2022/07/15 06:56:44;;;;;;;2.73;1.40;;;;;;;14.96;100.00;102304.09;4961251;28;20216;-75
2022/07/15 06:59:10;;;;;;;2.50;0.70;;;;;;;15.19;100.00;102309.31;4962148;28;20524;-75
2022/07/15 07:01:36;;;;;;;1.43;0.70;;;;;;;15.31;100.00;102315.03;4964523;28;20225;-75
2022/07/15 07:04:02;;;;;;;2.00;0.83;;;;;;;15.24;100.00;102279.81;4965187;28;20623;-75
2022/07/15 07:06:27;;;;;;;1.70;0.60;;;;;;;15.12;100.00;102244.38;4965262;28;20509;-74
2022/07/15 07:08:53;;;;;;;3.00;0.80;;;;;;;15.33;100.00;102284.09;4963228;28;20647;-75
2022/07/15 07:11:19;;;;;;;2.07;0.90;;;;;;;15.56;100.00;102293.81;4962805;28;20195;-74
2022/07/15 07:13:46;;;;;;;4.07;0.80;;;;;;;15.91;100.00;102307.41;4962872;28;20206;-75
2022/07/15 07:16:12;;;;;;;1.57;0.70;;;;;;;15.82;100.00;102280.53;4965462;28;20539;-74
2022/07/15 07:18:37;;;;;;;2.67;0.90;;;;;;;15.80;100.00;102274.47;4962131;28;21263;-74
2022/07/15 07:21:03;;;;;;;3.03;0.70;;;;;;;15.74;100.00;102290.66;4962231;28;20191;-74
2022/07/15 07:23:30;;;;;;;2.30;0.67;;;;;;;14.52;100.00;102061.22;4963159;28;20213;-74
2022/07/15 07:25:56;;;;;;;4.20;1.37;;;;;;;15.39;100.00;102166.22;4964708;28;20214;-74
2022/07/15 07:28:21;;;;;;;2.00;0.83;;;;;;;15.90;100.00;102284.91;4965110;28;20458;-75
2022/07/15 07:30:49;;;;;;;2.33;0.77;;;;;;;15.89;100.00;102283.25;4963586;28;20726;-74
2022/07/15 07:33:15;;;;;;;2.93;1.07;;;;;;;15.71;100.00;102277.53;4963767;28;20565;-74
2022/07/15 07:35:42;;;;;;;3.70;0.80;;;;;;;15.85;100.00;102248.66;4965583;28;20481;-74
2022/07/15 07:38:08;;;;;;;1.73;0.60;;;;;;;15.99;100.00;102245.00;4962661;28;20418;-73
2022/07/15 07:40:33;;;;;;;1.60;0.70;;;;;;;16.18;100.00;102252.38;4963219;28;20554;-73
2022/07/15 07:42:59;;;;;;;3.03;0.60;;;;;;;16.04;100.00;102237.13;4960683;28;20516;-73
2022/07/15 07:45:24;;;;;;;5.90;0.80;;;;;;;16.32;100.00;102245.16;4964703;28;20178;-74
2022/07/15 07:47:50;;;;;;;3.03;0.60;;;;;;;16.36;100.00;102240.16;4962121;28;20202;-74
2022/07/15 07:50:16;;;;;;;1.43;0.70;;;;;;;16.45;100.00;102247.91;4963112;28;20193;-74
2022/07/15 07:52:42;;;;;;;2.30;0.60;;;;;;;16.12;100.00;102231.53;4963180;28;20691;-73
2022/07/15 07:55:08;;;;;;;0.90;0.60;;;;;;;16.34;100.00;102240.34;4959075;28;20227;-73
2022/07/15 07:57:34;;;;;;;0.93;0.60;;;;;;;16.60;100.00;102250.44;4961204;28;20224;-74
2022/07/15 08:00:01;;;;;;;0.80;0.50;;;;;;;15.96;100.00;102186.69;4962333;28;20435;-74
2022/07/15 08:02:26;;;;;;;3.70;0.87;;;;;;;16.33;100.00;102227.03;4961724;28;20430;-74
2022/07/15 08:04:52;;;;;;;1.00;0.60;;;;;;;15.74;100.00;102187.88;4962127;28;20511;-74
2022/07/15 08:07:17;;;;;;;2.50;0.60;;;;;;;15.97;100.00;102290.41;4962715;28;20182;-76
2022/07/15 08:09:43;;;;;;;1.73;0.70;;;;;;;15.71;100.00;102288.34;4963056;28;20260;-79
2022/07/15 08:12:08;;;;;;;3.57;1.00;;;;;;;15.40;100.00;102304.94;4962789;28;20245;-80
2022/07/15 08:14:34;;;;;;;2.77;0.90;;;;;;;15.29;100.00;102330.59;4966767;28;20602;-77
2022/07/15 08:16:59;;;;;;;1.70;0.50;;;;;;;15.26;100.00;102333.69;4963113;28;20210;-74
2022/07/15 08:19:25;;;;;;;2.07;0.60;;;;;;;14.33;100.00;102178.75;4962623;28;20334;-76
2022/07/15 08:21:50;;;;;;;1.17;0.60;;;;;;;14.86;100.00;102308.97;4968475;28;20686;-79
2022/07/15 08:24:17;;;;;;;1.87;0.70;;;;;;;14.48;100.00;102236.22;4967038;28;20856;-79
2022/07/15 08:26:42;;;;;;;1.90;0.80;;;;;;;14.76;100.00;102282.28;4971333;28;20178;-81
2022/07/15 08:29:08;;;;;;;1.87;0.60;;;;;;;14.55;100.00;102248.00;4968505;28;20496;-85
2022/07/15 08:31:35;;;;;;;1.03;0.50;;;;;;;14.95;100.00;102336.69;4970290;28;20648;-79
2022/07/15 08:34:01;;;;;;;3.10;0.83;;;;;;;14.64;100.00;102292.75;4963094;28;20745;-77
2022/07/15 08:36:26;;;;;;;2.30;0.70;;;;;;;14.85;100.00;102328.91;4969566;28;20465;-76
2022/07/15 08:38:52;;;;;;;1.90;0.60;;;;;;;14.88;100.00;102313.16;4968275;28;20787;-76
2022/07/15 08:41:18;;;;;;;1.83;0.90;;;;;;;15.09;100.00;102333.13;4967964;28;20314;-76
2022/07/15 08:43:44;;;;;;;3.20;0.80;;;;;;;15.23;100.00;102343.03;4966979;28;20211;-75
2022/07/15 08:46:09;;;;;;;1.20;0.70;;;;;;;15.12;100.00;102325.44;4967248;28;20234;-74
2022/07/15 08:48:40;;;;;;;1.67;0.90;;;;;;;15.07;100.00;102313.53;4972026;28;21085;-74
2022/07/15 08:51:09;;;;;;;1.63;0.70;;;;;;;14.64;100.00;102262.22;4967241;28;20214;-75
2022/07/15 08:53:35;;;;;;;1.53;0.80;;;;;;;14.18;100.00;102203.94;4964848;28;20512;-74
2022/07/15 08:56:02;;;;;;;3.53;0.70;;;;;;;14.87;100.00;102284.47;4963887;28;20552;-84
2022/07/15 08:58:28;;;;;;;2.07;0.73;;;;;;;15.34;100.00;102356.03;4965809;28;20182;-81
2022/07/15 09:00:53;;;;;;;1.80;0.90;;;;;;;15.18;100.00;102326.53;4969772;28;20433;-88
2022/07/15 09:03:19;;;;;;;1.53;0.77;;;;;;;14.87;100.00;102278.25;4970752;28;20582;-80
2022/07/15 09:05:44;;;;;;;1.77;0.80;;;;;;;14.50;100.00;102236.88;4965778;28;20175;-74
2022/07/15 09:08:18;;;;;;;3.17;0.70;;;;;;;15.00;100.00;102302.69;4964859;28;20187;-77
2022/07/15 09:10:51;;;;;;;1.30;0.70;;;;;;;15.43;100.00;102350.50;4965903;28;20174;-79
2022/07/15 09:13:40;;;;;;;1.80;0.90;;;;;;;15.44;100.00;102346.75;4969690;28;20434;-87
2022/07/15 09:16:08;;;;;;;3.00;1.00;;;;;;;15.53;100.00;102338.28;4985109;28;20465;-82
2022/07/15 09:18:42;;;;;;;1.33;0.80;;;;;;;15.58;100.00;102341.25;4968151;28;20935;-78
2022/07/15 09:21:23;;;;;;;1.63;0.70;;;;;;;15.57;100.00;102295.50;4966875;28;20456;-77
2022/07/15 09:23:50;;;;;;;1.53;0.80;;;;;;;16.07;100.00;102341.44;4966777;28;20931;-76
2022/07/15 09:26:33;;;;;;;2.10;0.80;;;;;;;15.89;100.00;102295.97;4964043;28;20439;-76
2022/07/15 09:28:59;;;;;;;1.63;0.90;;;;;;;15.88;100.00;102259.94;4965348;28;20536;-75
2022/07/15 09:34:12;;;;;;;2.73;0.80;;;;;;;15.98;100.00;102238.75;4966626;28;20500;-75
2022/07/15 09:36:43;;;;;;;1.67;0.70;;;;;;;16.64;100.00;102310.47;4967876;28;20461;-75
2022/07/15 09:39:08;;;;;;;2.63;0.50;;;;;;;16.57;100.00;102287.94;4965919;28;20198;-74
2022/07/15 09:41:40;;;;;;;1.10;0.70;;;;;;;16.70;100.00;102247.34;4969249;28;20509;-75
2022/07/15 09:44:15;;;;;;;2.30;0.97;;;;;;;17.03;100.00;102298.09;4967483;28;20213;-75
2022/07/15 09:46:59;;;;;;;5.67;0.90;;;;;;;16.97;100.00;102298.91;4966509;28;20453;-74
2022/07/15 09:49:24;;;;;;;0.60;0.50;;;;;;;16.82;100.00;102318.91;4966667;28;20942;-75
2022/07/15 09:51:58;;;;;;;3.60;1.00;;;;;;;16.53;100.00;102294.81;4966540;28;20434;-75
2022/07/15 09:54:44;;;;;;;2.37;0.70;;;;;;;16.32;100.00;102312.03;4966375;28;20218;-75
2022/07/15 09:59:51;;;;;;;4.40;0.97;;;;;;;16.01;100.00;102337.66;4954247;28;20489;-73
2022/07/15 10:02:17;;;;;;;2.30;0.70;;;;;;;15.73;100.00;102308.72;4961700;28;20422;-73
2022/07/15 10:04:43;;;;;;;3.20;0.90;;;;;;;15.77;100.00;102312.75;4964816;28;20429;-72
2022/07/15 10:07:11;;;;;;;6.00;1.43;;;;;;;15.73;100.00;102319.56;4962398;28;20819;-73
2022/07/15 10:09:37;;;;;;;3.53;1.00;;;;;;;15.86;100.00;102288.25;4974440;28;20218;-72
2022/07/15 10:12:09;;;;;;;2.57;0.90;;;;;;;16.04;100.00;102305.63;4960140;28;20421;-73
2022/07/15 10:15:02;;;;;;;4.40;1.10;;;;;;;16.42;100.00;102340.38;4962705;28;20199;-75
2022/07/15 10:18:01;;;;;;;3.90;1.00;;;;;;;16.49;100.00;102335.00;4962341;28;20922;-75
2022/07/15 10:20:32;;;;;;;3.90;0.80;;;;;;;16.69;100.00;102330.50;4961150;28;20846;-75
2022/07/15 10:23:22;;;;;;;3.03;0.80;;;;;;;16.75;100.00;102317.16;4962507;28;20468;-76
2022/07/15 10:26:14;;;;;;;2.80;1.47;;;;;;;17.02;100.00;102315.41;4960280;28;20457;-76
2022/07/15 10:29:03;;;;;;;3.27;0.80;;;;;;;17.06;100.00;102229.91;4960801;28;20454;-75
2022/07/15 10:31:31;;;;;;;3.03;0.90;;;;;;;17.58;100.00;102296.84;4964150;28;20875;-76
2022/07/15 10:34:17;;;;;;;5.43;1.00;;;;;;;17.66;100.00;102282.25;4963280;28;20454;-83
2022/07/15 10:36:45;;;;;;;1.57;1.00;;;;;;;17.50;100.00;102278.09;4964001;28;20465;-77
2022/07/15 10:39:11;;;;;;;3.80;0.90;;;;;;;17.36;100.00;102209.47;4959823;28;20970;-75
2022/07/15 10:42:03;;;;;;;2.73;0.80;;;;;;;17.66;100.00;102278.69;4963239;28;20488;-75
2022/07/15 10:44:34;;;;;;;2.67;0.90;;;;;;;17.52;100.00;102248.03;4961401;28;20179;-76
2022/07/15 10:47:14;;;;;;;3.83;1.73;;;;;;;17.27;100.00;102269.53;4961351;28;20462;-76
2022/07/15 10:49:45;;;;;;;1.47;0.70;;;;;;;16.57;100.00;102190.44;4963807;28;20504;-76
2022/07/15 10:52:15;;;;;;;2.83;0.80;;;;;;;16.75;100.00;102296.34;4962662;28;20422;-76
2022/07/15 10:54:48;;;;;;;2.40;0.90;;;;;;;16.68;100.00;102296.31;4961281;28;20488;-75
2022/07/15 10:57:16;;;;;;;1.97;1.00;;;;;;;16.61;100.00;102308.19;4963938;28;20466;-75
2022/07/15 11:00:19;;;;;;;2.43;1.00;;;;;;;16.59;100.00;102312.97;4960436;28;20445;-71
2022/07/15 11:03:05;;;;;;;6.33;1.20;;;;;;;16.53;100.00;102305.66;4959896;28;20425;-72
2022/07/15 11:05:31;;;;;;;3.07;0.77;;;;;;;16.43;100.00;102289.75;4956550;28;20472;-73
2022/07/15 11:07:57;;;;;;;4.63;1.70;;;;;;;16.42;100.00;102307.06;4959482;28;20501;-74
2022/07/15 11:10:23;;;;;;;4.60;0.90;;;;;;;16.14;100.00;102242.16;4959028;28;20189;-75
2022/07/15 11:12:48;;;;;;;5.23;1.20;;;;;;;16.55;100.00;102292.72;4959414;28;20681;-75
2022/07/15 11:15:17;;;;;;;1.87;0.80;;;;;;;16.32;100.00;102228.91;4963388;28;20198;-75
2022/07/15 11:17:49;;;;;;;2.30;0.70;;;;;;;16.61;100.00;102244.00;4962835;28;20217;-75
2022/07/15 11:20:20;;;;;;;1.80;0.90;;;;;;;16.89;100.00;102306.22;4960740;28;20438;-74
2022/07/15 11:22:48;;;;;;;3.20;1.10;;;;;;;16.99;100.00;102286.00;4963421;28;20795;-74
2022/07/15 11:25:27;;;;;;;2.27;0.80;;;;;;;17.07;100.00;102291.22;4958792;28;20729;-75